createdAt,value
2019-01-23T00:05:14.736Z,73.45
2019-01-23T00:15:16.771Z,74.24
2019-01-23T00:25:18.727Z,74.16
2019-01-23T00:35:20.681Z,74.58
2019-01-23T00:45:22.637Z,75.05
2019-01-23T00:55:24.833Z,74.72
2019-01-23T01:05:27.030Z,74.43
2019-01-23T01:15:29.272Z,73.46
2019-01-23T01:25:31.229Z,75.36
2019-01-23T01:35:33.187Z,75.15
2019-01-23T01:45:35.373Z,75.61
2019-01-23T01:55:37.349Z,75.60
2019-01-23T02:05:39.611Z,75.96
2019-01-23T02:15:41.740Z,76.21
2019-01-23T02:25:43.821Z,74.94
2019-01-23T02:35:45.801Z,74.98
2019-01-23T02:45:47.744Z,75.24
2019-01-23T02:55:49.735Z,75.59
2019-01-23T03:05:51.725Z,75.70
2019-01-23T03:15:54.664Z,75.60
2019-01-23T03:25:56.625Z,75.31
2019-01-23T03:35:58.535Z,75.73
2019-01-23T03:46:00.596Z,76.68
2019-01-23T03:56:02.984Z,77.63
2019-01-23T04:06:05.469Z,79.07
2019-01-23T04:16:07.430Z,79.55
2019-01-23T04:26:09.668Z,79.14
2019-01-23T04:36:11.737Z,78.42
2019-01-23T04:46:13.709Z,78.54
2019-01-23T04:56:15.939Z,79.11
2019-01-23T05:06:17.989Z,78.35
2019-01-23T05:16:19.927Z,78.58
2019-01-23T05:26:21.902Z,78.58
2019-01-23T05:36:26.198Z,78.81
2019-01-23T05:46:28.144Z,78.70
2019-01-23T05:56:32.069Z,78.66
2019-01-23T06:06:34.175Z,78.99
2019-01-23T06:16:36.314Z,79.19
2019-01-23T06:26:39.852Z,78.44
2019-01-23T06:36:41.819Z,78.51
2019-01-23T06:46:43.780Z,78.28
2019-01-23T06:56:45.814Z,78.35
2019-01-23T07:06:49.014Z,78.96
2019-01-23T07:16:51.288Z,78.84
2019-01-23T07:26:53.345Z,79.00
2019-01-23T07:36:55.295Z,78.68
2019-01-23T07:46:57.356Z,78.05
2019-01-23T07:56:59.351Z,77.48
2019-01-23T08:07:01.330Z,77.64
2019-01-23T08:17:04.600Z,77.37
2019-01-23T08:27:07.125Z,76.88
2019-01-23T08:37:09.305Z,76.29
2019-01-23T08:47:11.354Z,75.26
2019-01-23T08:57:13.556Z,75.14
2019-01-23T09:07:15.657Z,74.88
2019-01-23T09:17:17.744Z,73.44
2019-01-23T09:27:19.729Z,72.26
2019-01-23T09:37:38.202Z,71.10
2019-01-23T09:48:09.069Z,70.57
2019-01-23T09:58:11.271Z,69.58
2019-01-23T10:08:13.361Z,69.68
2019-01-23T10:18:15.354Z,70.29
2019-01-23T10:28:17.331Z,68.83
2019-01-23T10:38:20.814Z,68.34
2019-01-23T10:48:22.978Z,66.66
2019-01-23T10:58:25.244Z,67.05
2019-01-23T11:08:27.247Z,65.40
2019-01-23T11:18:29.321Z,65.73
2019-01-23T11:28:31.268Z,65.71
2019-01-23T11:38:33.234Z,65.53
2019-01-23T11:48:35.307Z,63.87
2019-01-23T11:58:37.496Z,63.99
2019-01-23T12:08:41.615Z,61.97
2019-01-23T12:18:43.687Z,60.53
2019-01-23T12:28:46.846Z,61.02
2019-01-23T12:38:48.847Z,60.93
2019-01-23T12:48:50.842Z,61.77
2019-01-23T12:58:52.852Z,59.77
2019-01-23T13:08:54.870Z,62.23
2019-01-23T13:18:56.837Z,61.83
2019-01-23T13:29:00.294Z,60.45
2019-01-23T13:39:04.498Z,59.78
2019-01-23T13:49:06.459Z,59.15
2019-01-23T13:59:09.331Z,58.73
2019-01-23T14:09:11.697Z,57.86
2019-01-23T14:19:13.759Z,58.46
2019-01-23T14:29:15.695Z,59.67
2019-01-23T14:39:18.055Z,60.42
2019-01-23T14:49:20.006Z,64.44
2019-01-23T14:59:22.154Z,66.58
2019-01-23T15:09:24.317Z,68.30
2019-01-23T15:19:26.488Z,69.33
2019-01-23T15:29:28.476Z,69.76
2019-01-23T15:39:35.674Z,70.09
2019-01-23T15:49:37.652Z,71.13
2019-01-23T15:59:39.616Z,72.21
2019-01-23T16:09:41.610Z,73.54
2019-01-23T16:19:43.567Z,74.33
2019-01-23T16:29:45.539Z,74.71
2019-01-23T16:39:47.978Z,74.29
2019-01-23T16:49:50.318Z,74.67
2019-01-23T16:59:52.514Z,74.52
2019-01-23T17:09:54.779Z,75.49
2019-01-23T17:19:59.109Z,75.09
2019-01-23T17:30:00.906Z,75.40
2019-01-23T17:40:05.017Z,75.34
2019-01-23T17:50:10.026Z,74.15
2019-01-23T18:00:16.910Z,74.78
2019-01-23T18:10:19.077Z,74.56
2019-01-23T18:20:24.183Z,74.60
2019-01-23T18:30:35.881Z,74.50
2019-01-23T18:41:24.906Z,74.25
2019-01-23T18:52:01.846Z,74.09
2019-01-23T19:02:04.128Z,73.52
2019-01-23T19:12:06.270Z,74.09
2019-01-23T19:22:09.133Z,73.35
2019-01-23T19:42:13.283Z,72.73
2019-01-23T19:52:15.409Z,72.86
2019-01-23T20:02:17.672Z,72.17
2019-01-23T20:12:19.636Z,73.24
2019-01-23T20:22:21.714Z,72.88
2019-01-23T20:32:23.665Z,72.79
2019-01-23T20:42:25.811Z,73.22
2019-01-23T20:52:27.746Z,72.76
2019-01-23T21:02:29.860Z,71.50
2019-01-23T21:12:31.941Z,71.59
2019-01-23T21:22:36.118Z,72.73
2019-01-23T21:32:38.062Z,73.45
2019-01-23T21:42:40.134Z,71.95
2019-01-23T21:52:42.705Z,71.40
2019-01-23T22:02:44.838Z,71.73
2019-01-23T22:12:47.016Z,70.86
2019-01-23T22:22:49.279Z,70.89
2019-01-23T22:32:51.429Z,69.88
2019-01-23T22:42:53.442Z,69.26
2019-01-23T22:52:55.630Z,70.29
2019-01-23T23:02:57.812Z,71.10
2019-01-23T23:12:59.864Z,70.36
2019-01-23T23:23:02.013Z,69.44
2019-01-23T23:33:04.223Z,70.92
2019-01-23T23:43:06.251Z,69.00
2019-01-23T23:53:08.321Z,71.67
